sensor_id;sensor_type;location;lat;lon;timestamp;temperature;humidity
57026;DHT22;43961;52.940;6.834;2023-12-29T00:00:06;9.40;99.90
57026;DHT22;43961;52.940;6.834;2023-12-29T00:02:31;9.30;99.90
57026;DHT22;43961;52.940;6.834;2023-12-29T00:04:57;9.30;99.90
57026;DHT22;43961;52.940;6.834;2023-12-29T00:07:23;9.30;99.90
57026;DHT22;43961;52.940;6.834;2023-12-29T00:09:48;9.40;99.90
57026;DHT22;43961;52.940;6.834;2023-12-29T00:12:14;9.40;99.90
57026;DHT22;43961;52.940;6.834;2023-12-29T00:14:40;9.40;99.90
57026;DHT22;43961;52.940;6.834;2023-12-29T00:17:05;9.40;99.90
57026;DHT22;43961;52.940;6.834;2023-12-29T00:19:31;9.50;99.90
57026;DHT22;43961;52.940;6.834;2023-12-29T00:21:57;9.50;99.90
57026;DHT22;43961;52.940;6.834;2023-12-29T00:24:22;9.50;99.90
57026;DHT22;43961;52.940;6.834;2023-12-29T00:26:48;9.50;99.90
57026;DHT22;43961;52.940;6.834;2023-12-29T00:29:17;9.50;99.90
57026;DHT22;43961;52.940;6.834;2023-12-29T00:31:43;9.50;99.90
57026;DHT22;43961;52.940;6.834;2023-12-29T00:34:08;9.60;99.90
57026;DHT22;43961;52.940;6.834;2023-12-29T00:36:34;9.50;99.90
57026;DHT22;43961;52.940;6.834;2023-12-29T00:38:59;9.60;99.90
57026;DHT22;43961;52.940;6.834;2023-12-29T00:41:25;9.60;99.90
57026;DHT22;43961;52.940;6.834;2023-12-29T00:43:51;9.60;99.90
57026;DHT22;43961;52.940;6.834;2023-12-29T00:46:16;9.60;99.90
57026;DHT22;43961;52.940;6.834;2023-12-29T00:48:42;9.60;99.90
57026;DHT22;43961;52.940;6.834;2023-12-29T00:51:08;9.60;99.90
57026;DHT22;43961;52.940;6.834;2023-12-29T00:53:35;9.60;99.90
57026;DHT22;43961;52.940;6.834;2023-12-29T00:56:00;9.60;99.90
57026;DHT22;43961;52.940;6.834;2023-12-29T00:58:26;9.60;99.90
57026;DHT22;43961;52.940;6.834;2023-12-29T01:00:52;9.50;99.90
57026;DHT22;43961;52.940;6.834;2023-12-29T01:03:18;9.50;99.90
57026;DHT22;43961;52.940;6.834;2023-12-29T01:05:43;9.60;99.90
57026;DHT22;43961;52.940;6.834;2023-12-29T01:08:09;9.50;99.90
57026;DHT22;43961;52.940;6.834;2023-12-29T01:10:35;9.50;99.90
57026;DHT22;43961;52.940;6.834;2023-12-29T01:13:00;9.50;99.90
57026;DHT22;43961;52.940;6.834;2023-12-29T01:15:27;9.50;99.90
57026;DHT22;43961;52.940;6.834;2023-12-29T01:17:54;9.50;99.90
57026;DHT22;43961;52.940;6.834;2023-12-29T01:20:19;9.50;99.90
57026;DHT22;43961;52.940;6.834;2023-12-29T01:22:45;9.40;99.90
57026;DHT22;43961;52.940;6.834;2023-12-29T01:25:10;9.40;99.90
57026;DHT22;43961;52.940;6.834;2023-12-29T01:27:36;9.40;99.90
57026;DHT22;43961;52.940;6.834;2023-12-29T01:30:02;9.40;99.90
57026;DHT22;43961;52.940;6.834;2023-12-29T01:32:27;9.40;99.90
57026;DHT22;43961;52.940;6.834;2023-12-29T01:34:53;9.40;99.90
57026;DHT22;43961;52.940;6.834;2023-12-29T01:37:18;9.40;99.90
57026;DHT22;43961;52.940;6.834;2023-12-29T01:39:44;9.40;99.90
57026;DHT22;43961;52.940;6.834;2023-12-29T01:42:10;9.40;99.90
57026;DHT22;43961;52.940;6.834;2023-12-29T01:44:36;9.40;99.90
57026;DHT22;43961;52.940;6.834;2023-12-29T01:47:10;9.40;99.90
57026;DHT22;43961;52.940;6.834;2023-12-29T01:49:37;9.40;99.90
57026;DHT22;43961;52.940;6.834;2023-12-29T01:52:03;9.40;99.90
57026;DHT22;43961;52.940;6.834;2023-12-29T01:54:33;9.30;99.90
57026;DHT22;43961;52.940;6.834;2023-12-29T01:57:02;9.30;99.90
57026;DHT22;43961;52.940;6.834;2023-12-29T01:59:28;9.30;99.90
57026;DHT22;43961;52.940;6.834;2023-12-29T02:01:55;9.30;99.90
57026;DHT22;43961;52.940;6.834;2023-12-29T02:04:23;9.30;99.90
57026;DHT22;43961;52.940;6.834;2023-12-29T02:06:49;9.30;99.90
57026;DHT22;43961;52.940;6.834;2023-12-29T02:09:16;9.30;99.90
57026;DHT22;43961;52.940;6.834;2023-12-29T02:11:42;9.30;99.90
57026;DHT22;43961;52.940;6.834;2023-12-29T02:14:08;9.30;99.90
57026;DHT22;43961;52.940;6.834;2023-12-29T02:19:48;9.30;99.90
57026;DHT22;43961;52.940;6.834;2023-12-29T02:22:15;9.30;99.90
57026;DHT22;43961;52.940;6.834;2023-12-29T02:24:48;9.30;99.90
57026;DHT22;43961;52.940;6.834;2023-12-29T02:27:43;9.30;99.90
57026;DHT22;43961;52.940;6.834;2023-12-29T02:30:37;9.30;99.90
57026;DHT22;43961;52.940;6.834;2023-12-29T02:33:10;9.30;99.90
57026;DHT22;43961;52.940;6.834;2023-12-29T02:35:39;9.30;99.90
57026;DHT22;43961;52.940;6.834;2023-12-29T02:38:06;9.40;99.90
57026;DHT22;43961;52.940;6.834;2023-12-29T02:40:32;9.40;99.90
57026;DHT22;43961;52.940;6.834;2023-12-29T02:42:58;9.40;99.90
57026;DHT22;43961;52.940;6.834;2023-12-29T02:45:24;9.50;99.90
57026;DHT22;43961;52.940;6.834;2023-12-29T02:47:49;9.50;99.90
57026;DHT22;43961;52.940;6.834;2023-12-29T02:50:16;9.50;99.90
57026;DHT22;43961;52.940;6.834;2023-12-29T02:52:41;9.50;99.90
57026;DHT22;43961;52.940;6.834;2023-12-29T02:55:07;9.50;99.90
57026;DHT22;43961;52.940;6.834;2023-12-29T02:57:33;9.50;99.90
57026;DHT22;43961;52.940;6.834;2023-12-29T02:59:59;9.50;99.90
57026;DHT22;43961;52.940;6.834;2023-12-29T03:02:25;9.40;99.90
57026;DHT22;43961;52.940;6.834;2023-12-29T03:04:50;9.40;99.90
57026;DHT22;43961;52.940;6.834;2023-12-29T03:07:16;9.40;99.90
57026;DHT22;43961;52.940;6.834;2023-12-29T03:09:42;9.30;99.90
57026;DHT22;43961;52.940;6.834;2023-12-29T03:12:08;9.20;99.90
57026;DHT22;43961;52.940;6.834;2023-12-29T03:14:34;9.00;99.90
57026;DHT22;43961;52.940;6.834;2023-12-29T03:17:00;8.90;99.90
57026;DHT22;43961;52.940;6.834;2023-12-29T03:19:26;8.80;99.90
57026;DHT22;43961;52.940;6.834;2023-12-29T03:21:52;8.70;99.90
57026;DHT22;43961;52.940;6.834;2023-12-29T03:24:19;8.70;99.90
57026;DHT22;43961;52.940;6.834;2023-12-29T03:26:45;8.70;99.90
57026;DHT22;43961;52.940;6.834;2023-12-29T03:29:11;8.80;99.90
57026;DHT22;43961;52.940;6.834;2023-12-29T03:31:37;8.80;99.90
57026;DHT22;43961;52.940;6.834;2023-12-29T03:34:03;8.80;99.90
57026;DHT22;43961;52.940;6.834;2023-12-29T03:36:29;8.90;99.90
57026;DHT22;43961;52.940;6.834;2023-12-29T03:38:54;8.90;99.90
57026;DHT22;43961;52.940;6.834;2023-12-29T03:41:20;9.00;99.90
57026;DHT22;43961;52.940;6.834;2023-12-29T03:43:46;9.00;99.90
57026;DHT22;43961;52.940;6.834;2023-12-29T03:46:21;9.00;99.90
57026;DHT22;43961;52.940;6.834;2023-12-29T03:48:47;9.00;99.90
57026;DHT22;43961;52.940;6.834;2023-12-29T03:51:13;9.10;99.90
57026;DHT22;43961;52.940;6.834;2023-12-29T03:53:40;9.10;99.90
57026;DHT22;43961;52.940;6.834;2023-12-29T03:56:12;9.10;99.90
57026;DHT22;43961;52.940;6.834;2023-12-29T03:58:38;9.10;99.90
57026;DHT22;43961;52.940;6.834;2023-12-29T04:01:04;9.10;99.90
57026;DHT22;43961;52.940;6.834;2023-12-29T04:03:34;9.10;99.90
57026;DHT22;43961;52.940;6.834;2023-12-29T04:05:59;9.10;99.90
57026;DHT22;43961;52.940;6.834;2023-12-29T04:08:25;9.10;99.90
57026;DHT22;43961;52.940;6.834;2023-12-29T04:10:51;9.10;99.90
57026;DHT22;43961;52.940;6.834;2023-12-29T04:13:16;9.10;99.90
57026;DHT22;43961;52.940;6.834;2023-12-29T04:15:42;9.10;99.90
57026;DHT22;43961;52.940;6.834;2023-12-29T04:18:07;9.10;99.90
57026;DHT22;43961;52.940;6.834;2023-12-29T04:20:33;9.10;99.90
57026;DHT22;43961;52.940;6.834;2023-12-29T04:22:58;9.10;99.90
57026;DHT22;43961;52.940;6.834;2023-12-29T04:25:24;9.10;99.90
57026;DHT22;43961;52.940;6.834;2023-12-29T04:27:50;9.10;99.90
57026;DHT22;43961;52.940;6.834;2023-12-29T04:30:15;9.10;99.90
57026;DHT22;43961;52.940;6.834;2023-12-29T04:32:41;9.00;99.90
57026;DHT22;43961;52.940;6.834;2023-12-29T04:35:07;9.00;99.90
57026;DHT22;43961;52.940;6.834;2023-12-29T04:37:33;9.00;99.90
57026;DHT22;43961;52.940;6.834;2023-12-29T04:39:58;8.90;99.90
57026;DHT22;43961;52.940;6.834;2023-12-29T04:42:24;9.00;99.90
57026;DHT22;43961;52.940;6.834;2023-12-29T04:44:50;8.90;99.90
57026;DHT22;43961;52.940;6.834;2023-12-29T04:47:15;8.90;99.90
57026;DHT22;43961;52.940;6.834;2023-12-29T04:49:42;8.90;99.90
57026;DHT22;43961;52.940;6.834;2023-12-29T04:52:07;8.90;99.90
57026;DHT22;43961;52.940;6.834;2023-12-29T04:54:33;8.90;99.90
57026;DHT22;43961;52.940;6.834;2023-12-29T04:56:59;8.90;99.90
57026;DHT22;43961;52.940;6.834;2023-12-29T04:59:24;9.00;99.90
57026;DHT22;43961;52.940;6.834;2023-12-29T05:01:50;8.90;99.90
57026;DHT22;43961;52.940;6.834;2023-12-29T05:04:15;8.90;99.90
57026;DHT22;43961;52.940;6.834;2023-12-29T05:06:42;8.90;99.90
57026;DHT22;43961;52.940;6.834;2023-12-29T05:09:07;8.90;99.90
57026;DHT22;43961;52.940;6.834;2023-12-29T05:11:34;8.90;99.90
57026;DHT22;43961;52.940;6.834;2023-12-29T05:14:00;8.90;99.90
57026;DHT22;43961;52.940;6.834;2023-12-29T05:16:25;8.90;99.90
57026;DHT22;43961;52.940;6.834;2023-12-29T05:18:51;8.90;99.90
57026;DHT22;43961;52.940;6.834;2023-12-29T05:21:17;8.90;99.90
57026;DHT22;43961;52.940;6.834;2023-12-29T05:23:44;8.90;99.90
57026;DHT22;43961;52.940;6.834;2023-12-29T05:26:11;8.90;99.90
57026;DHT22;43961;52.940;6.834;2023-12-29T05:28:36;8.90;99.90
57026;DHT22;43961;52.940;6.834;2023-12-29T05:31:02;8.90;99.90
57026;DHT22;43961;52.940;6.834;2023-12-29T05:33:31;8.90;99.90
57026;DHT22;43961;52.940;6.834;2023-12-29T05:35:57;8.90;99.90
57026;DHT22;43961;52.940;6.834;2023-12-29T05:38:22;8.90;99.90
57026;DHT22;43961;52.940;6.834;2023-12-29T05:40:49;8.90;99.90
57026;DHT22;43961;52.940;6.834;2023-12-29T05:43:15;8.90;99.90
57026;DHT22;43961;52.940;6.834;2023-12-29T05:45:41;8.90;99.90
57026;DHT22;43961;52.940;6.834;2023-12-29T05:48:07;8.90;99.90
57026;DHT22;43961;52.940;6.834;2023-12-29T05:50:33;8.90;99.90
57026;DHT22;43961;52.940;6.834;2023-12-29T05:52:58;8.90;99.90
57026;DHT22;43961;52.940;6.834;2023-12-29T05:55:24;8.90;99.90
57026;DHT22;43961;52.940;6.834;2023-12-29T05:57:49;8.90;99.90
57026;DHT22;43961;52.940;6.834;2023-12-29T06:00:15;8.90;99.90
57026;DHT22;43961;52.940;6.834;2023-12-29T06:02:41;8.90;99.90
57026;DHT22;43961;52.940;6.834;2023-12-29T06:05:10;8.90;99.90
57026;DHT22;43961;52.940;6.834;2023-12-29T06:07:35;8.90;99.90
57026;DHT22;43961;52.940;6.834;2023-12-29T06:10:02;8.80;99.90
57026;DHT22;43961;52.940;6.834;2023-12-29T06:12:28;8.80;99.90
57026;DHT22;43961;52.940;6.834;2023-12-29T06:14:53;8.80;99.90
57026;DHT22;43961;52.940;6.834;2023-12-29T06:17:19;8.80;99.90
57026;DHT22;43961;52.940;6.834;2023-12-29T06:19:45;8.80;99.90
57026;DHT22;43961;52.940;6.834;2023-12-29T06:22:10;8.80;99.90
57026;DHT22;43961;52.940;6.834;2023-12-29T06:24:40;8.90;99.90
57026;DHT22;43961;52.940;6.834;2023-12-29T06:27:09;8.90;99.90
57026;DHT22;43961;52.940;6.834;2023-12-29T06:29:35;8.90;99.90
57026;DHT22;43961;52.940;6.834;2023-12-29T06:32:02;8.90;99.90
57026;DHT22;43961;52.940;6.834;2023-12-29T06:34:28;8.90;99.90
57026;DHT22;43961;52.940;6.834;2023-12-29T06:36:53;8.90;99.90
57026;DHT22;43961;52.940;6.834;2023-12-29T06:39:19;8.90;99.90
57026;DHT22;43961;52.940;6.834;2023-12-29T06:41:44;8.90;99.90
57026;DHT22;43961;52.940;6.834;2023-12-29T06:44:10;8.90;99.90
57026;DHT22;43961;52.940;6.834;2023-12-29T06:46:39;8.90;99.90
57026;DHT22;43961;52.940;6.834;2023-12-29T06:49:07;9.00;99.90
57026;DHT22;43961;52.940;6.834;2023-12-29T06:51:33;9.00;99.90
57026;DHT22;43961;52.940;6.834;2023-12-29T06:53:59;9.00;99.90
57026;DHT22;43961;52.940;6.834;2023-12-29T06:56:25;9.00;99.90
57026;DHT22;43961;52.940;6.834;2023-12-29T06:58:51;9.00;99.90
57026;DHT22;43961;52.940;6.834;2023-12-29T07:01:17;9.00;99.90
57026;DHT22;43961;52.940;6.834;2023-12-29T07:03:42;9.00;99.90
57026;DHT22;43961;52.940;6.834;2023-12-29T07:06:09;9.00;99.90
57026;DHT22;43961;52.940;6.834;2023-12-29T07:08:35;9.00;99.90
57026;DHT22;43961;52.940;6.834;2023-12-29T07:11:00;8.90;99.90
57026;DHT22;43961;52.940;6.834;2023-12-29T07:13:27;8.90;99.90
57026;DHT22;43961;52.940;6.834;2023-12-29T07:15:53;8.90;99.90
57026;DHT22;43961;52.940;6.834;2023-12-29T07:18:18;8.90;99.90
57026;DHT22;43961;52.940;6.834;2023-12-29T07:20:44;8.90;99.90
57026;DHT22;43961;52.940;6.834;2023-12-29T07:23:09;8.90;99.90
57026;DHT22;43961;52.940;6.834;2023-12-29T07:25:35;8.90;99.90
57026;DHT22;43961;52.940;6.834;2023-12-29T07:28:00;8.90;99.90
57026;DHT22;43961;52.940;6.834;2023-12-29T07:30:26;8.90;99.90
57026;DHT22;43961;52.940;6.834;2023-12-29T07:32:52;8.90;99.90
57026;DHT22;43961;52.940;6.834;2023-12-29T07:35:17;8.90;99.90
57026;DHT22;43961;52.940;6.834;2023-12-29T07:37:45;8.90;99.90
57026;DHT22;43961;52.940;6.834;2023-12-29T07:40:11;8.90;99.90
57026;DHT22;43961;52.940;6.834;2023-12-29T07:42:39;8.90;99.90
57026;DHT22;43961;52.940;6.834;2023-12-29T07:45:05;8.80;99.90
57026;DHT22;43961;52.940;6.834;2023-12-29T07:47:31;8.80;99.90
57026;DHT22;43961;52.940;6.834;2023-12-29T07:49:57;8.80;99.90
57026;DHT22;43961;52.940;6.834;2023-12-29T07:52:22;8.80;99.90
57026;DHT22;43961;52.940;6.834;2023-12-29T07:54:48;8.70;99.90
57026;DHT22;43961;52.940;6.834;2023-12-29T07:57:14;8.70;99.90
57026;DHT22;43961;52.940;6.834;2023-12-29T07:59:40;8.70;99.90
57026;DHT22;43961;52.940;6.834;2023-12-29T08:02:07;8.70;99.90
57026;DHT22;43961;52.940;6.834;2023-12-29T08:04:32;8.70;99.90
57026;DHT22;43961;52.940;6.834;2023-12-29T08:06:58;8.70;99.90
57026;DHT22;43961;52.940;6.834;2023-12-29T08:09:25;8.70;99.90
57026;DHT22;43961;52.940;6.834;2023-12-29T08:11:50;8.70;99.90
57026;DHT22;43961;52.940;6.834;2023-12-29T08:14:16;8.70;99.90
57026;DHT22;43961;52.940;6.834;2023-12-29T08:16:42;8.70;99.90
57026;DHT22;43961;52.940;6.834;2023-12-29T08:19:08;8.70;99.90
57026;DHT22;43961;52.940;6.834;2023-12-29T08:21:33;8.70;99.90
57026;DHT22;43961;52.940;6.834;2023-12-29T08:23:59;8.80;99.90
57026;DHT22;43961;52.940;6.834;2023-12-29T08:26:25;8.80;99.90
57026;DHT22;43961;52.940;6.834;2023-12-29T08:28:51;8.80;99.90
57026;DHT22;43961;52.940;6.834;2023-12-29T08:31:19;8.80;99.90
57026;DHT22;43961;52.940;6.834;2023-12-29T08:33:45;8.80;99.90
57026;DHT22;43961;52.940;6.834;2023-12-29T08:36:11;8.80;99.90
57026;DHT22;43961;52.940;6.834;2023-12-29T08:38:38;8.90;99.90
57026;DHT22;43961;52.940;6.834;2023-12-29T08:41:04;8.80;99.90
57026;DHT22;43961;52.940;6.834;2023-12-29T08:43:30;8.90;99.90
57026;DHT22;43961;52.940;6.834;2023-12-29T08:45:56;8.90;99.90
57026;DHT22;43961;52.940;6.834;2023-12-29T08:48:22;8.90;99.90
57026;DHT22;43961;52.940;6.834;2023-12-29T08:50:49;8.90;99.90
57026;DHT22;43961;52.940;6.834;2023-12-29T08:53:15;8.90;99.90
57026;DHT22;43961;52.940;6.834;2023-12-29T08:55:43;8.90;99.90
57026;DHT22;43961;52.940;6.834;2023-12-29T08:58:09;8.90;99.90
57026;DHT22;43961;52.940;6.834;2023-12-29T09:00:34;8.90;99.90
57026;DHT22;43961;52.940;6.834;2023-12-29T09:03:00;9.00;99.90
57026;DHT22;43961;52.940;6.834;2023-12-29T09:05:25;9.00;99.90
57026;DHT22;43961;52.940;6.834;2023-12-29T09:07:51;9.00;99.90
57026;DHT22;43961;52.940;6.834;2023-12-29T09:10:16;9.00;99.90
57026;DHT22;43961;52.940;6.834;2023-12-29T09:12:43;9.00;99.90
57026;DHT22;43961;52.940;6.834;2023-12-29T09:15:09;9.00;99.90
57026;DHT22;43961;52.940;6.834;2023-12-29T09:17:35;9.00;99.90
57026;DHT22;43961;52.940;6.834;2023-12-29T09:20:02;9.00;99.90
57026;DHT22;43961;52.940;6.834;2023-12-29T09:22:28;9.00;99.90
57026;DHT22;43961;52.940;6.834;2023-12-29T09:24:54;9.00;99.90
57026;DHT22;43961;52.940;6.834;2023-12-29T09:27:21;8.90;99.90
57026;DHT22;43961;52.940;6.834;2023-12-29T09:29:46;8.90;99.90
57026;DHT22;43961;52.940;6.834;2023-12-29T09:32:12;8.90;99.90
57026;DHT22;43961;52.940;6.834;2023-12-29T09:34:37;8.90;99.90
57026;DHT22;43961;52.940;6.834;2023-12-29T09:37:03;9.00;99.90
57026;DHT22;43961;52.940;6.834;2023-12-29T09:39:29;9.00;99.90
57026;DHT22;43961;52.940;6.834;2023-12-29T09:41:58;9.00;99.90
57026;DHT22;43961;52.940;6.834;2023-12-29T09:44:24;9.00;99.90
57026;DHT22;43961;52.940;6.834;2023-12-29T09:46:53;9.00;99.90
57026;DHT22;43961;52.940;6.834;2023-12-29T09:49:20;9.10;99.90
57026;DHT22;43961;52.940;6.834;2023-12-29T09:51:47;9.10;99.90
57026;DHT22;43961;52.940;6.834;2023-12-29T09:54:13;9.10;99.90
57026;DHT22;43961;52.940;6.834;2023-12-29T09:56:42;9.10;99.90
57026;DHT22;43961;52.940;6.834;2023-12-29T09:59:11;9.10;99.90
57026;DHT22;43961;52.940;6.834;2023-12-29T10:01:39;9.10;99.90
57026;DHT22;43961;52.940;6.834;2023-12-29T10:04:07;9.10;99.90
57026;DHT22;43961;52.940;6.834;2023-12-29T10:06:36;9.10;99.90
57026;DHT22;43961;52.940;6.834;2023-12-29T10:09:04;9.20;99.90
57026;DHT22;43961;52.940;6.834;2023-12-29T10:11:34;9.20;99.90
57026;DHT22;43961;52.940;6.834;2023-12-29T10:14:11;9.20;99.90
57026;DHT22;43961;52.940;6.834;2023-12-29T10:16:46;9.20;99.90
57026;DHT22;43961;52.940;6.834;2023-12-29T10:19:30;9.20;99.90
57026;DHT22;43961;52.940;6.834;2023-12-29T10:22:06;9.30;99.90
57026;DHT22;43961;52.940;6.834;2023-12-29T10:24:34;9.20;99.90
57026;DHT22;43961;52.940;6.834;2023-12-29T10:27:00;9.30;99.90
57026;DHT22;43961;52.940;6.834;2023-12-29T10:29:35;9.30;99.90
57026;DHT22;43961;52.940;6.834;2023-12-29T10:32:02;9.30;99.90
57026;DHT22;43961;52.940;6.834;2023-12-29T10:34:28;9.30;99.90
57026;DHT22;43961;52.940;6.834;2023-12-29T10:36:58;9.30;99.90
57026;DHT22;43961;52.940;6.834;2023-12-29T10:39:24;9.30;99.90
57026;DHT22;43961;52.940;6.834;2023-12-29T10:41:54;9.30;99.90
57026;DHT22;43961;52.940;6.834;2023-12-29T10:44:27;9.30;99.90
57026;DHT22;43961;52.940;6.834;2023-12-29T10:46:53;9.30;99.90
57026;DHT22;43961;52.940;6.834;2023-12-29T10:49:19;9.30;99.90
57026;DHT22;43961;52.940;6.834;2023-12-29T10:51:45;9.30;99.90
57026;DHT22;43961;52.940;6.834;2023-12-29T10:54:20;9.30;99.90
57026;DHT22;43961;52.940;6.834;2023-12-29T10:57:12;9.30;99.90
57026;DHT22;43961;52.940;6.834;2023-12-29T10:59:39;9.40;99.90
57026;DHT22;43961;52.940;6.834;2023-12-29T11:02:05;9.40;99.90
57026;DHT22;43961;52.940;6.834;2023-12-29T11:04:30;9.40;99.90
57026;DHT22;43961;52.940;6.834;2023-12-29T11:06:56;9.40;99.90
57026;DHT22;43961;52.940;6.834;2023-12-29T11:09:29;9.30;99.90
57026;DHT22;43961;52.940;6.834;2023-12-29T11:12:01;9.30;99.90
57026;DHT22;43961;52.940;6.834;2023-12-29T11:14:26;9.30;99.90
57026;DHT22;43961;52.940;6.834;2023-12-29T11:16:58;9.30;99.90
57026;DHT22;43961;52.940;6.834;2023-12-29T11:19:27;9.30;99.90
57026;DHT22;43961;52.940;6.834;2023-12-29T11:21:54;9.30;99.90
57026;DHT22;43961;52.940;6.834;2023-12-29T11:24:21;9.40;99.90
57026;DHT22;43961;52.940;6.834;2023-12-29T11:26:47;9.40;99.90
57026;DHT22;43961;52.940;6.834;2023-12-29T11:29:15;9.40;99.90
57026;DHT22;43961;52.940;6.834;2023-12-29T11:31:41;9.40;99.90
57026;DHT22;43961;52.940;6.834;2023-12-29T11:34:23;9.40;99.90
57026;DHT22;43961;52.940;6.834;2023-12-29T11:36:57;9.50;99.90
57026;DHT22;43961;52.940;6.834;2023-12-29T11:39:29;9.50;99.90
57026;DHT22;43961;52.940;6.834;2023-12-29T11:42:12;9.60;99.90
57026;DHT22;43961;52.940;6.834;2023-12-29T11:44:40;9.60;99.90
57026;DHT22;43961;52.940;6.834;2023-12-29T11:47:05;9.70;99.90
57026;DHT22;43961;52.940;6.834;2023-12-29T11:50:01;9.70;99.90
57026;DHT22;43961;52.940;6.834;2023-12-29T11:52:37;9.70;99.90
57026;DHT22;43961;52.940;6.834;2023-12-29T11:55:10;9.70;99.90
57026;DHT22;43961;52.940;6.834;2023-12-29T11:57:36;9.70;99.90
57026;DHT22;43961;52.940;6.834;2023-12-29T12:00:04;9.70;99.90
57026;DHT22;43961;52.940;6.834;2023-12-29T12:02:31;9.60;99.90
57026;DHT22;43961;52.940;6.834;2023-12-29T12:04:57;9.60;99.90
57026;DHT22;43961;52.940;6.834;2023-12-29T12:09:49;9.50;99.90
57026;DHT22;43961;52.940;6.834;2023-12-29T12:12:39;9.50;99.90
57026;DHT22;43961;52.940;6.834;2023-12-29T12:17:52;9.40;99.90
57026;DHT22;43961;52.940;6.834;2023-12-29T12:20:18;9.30;99.90
57026;DHT22;43961;52.940;6.834;2023-12-29T12:22:44;9.30;99.90
57026;DHT22;43961;52.940;6.834;2023-12-29T12:25:12;9.30;99.90
57026;DHT22;43961;52.940;6.834;2023-12-29T12:27:38;9.30;99.90
57026;DHT22;43961;52.940;6.834;2023-12-29T12:30:09;9.20;99.90
57026;DHT22;43961;52.940;6.834;2023-12-29T12:32:38;9.20;99.90
57026;DHT22;43961;52.940;6.834;2023-12-29T12:35:16;9.20;99.90
57026;DHT22;43961;52.940;6.834;2023-12-29T12:37:42;9.20;99.90
57026;DHT22;43961;52.940;6.834;2023-12-29T12:40:08;9.20;99.90
57026;DHT22;43961;52.940;6.834;2023-12-29T12:42:39;9.20;99.90
57026;DHT22;43961;52.940;6.834;2023-12-29T12:45:06;9.20;99.90
57026;DHT22;43961;52.940;6.834;2023-12-29T12:47:45;9.20;99.90
57026;DHT22;43961;52.940;6.834;2023-12-29T12:50:12;9.20;99.90
57026;DHT22;43961;52.940;6.834;2023-12-29T12:52:38;9.30;99.90
57026;DHT22;43961;52.940;6.834;2023-12-29T12:55:06;9.30;99.90
57026;DHT22;43961;52.940;6.834;2023-12-29T12:57:33;9.30;99.90
57026;DHT22;43961;52.940;6.834;2023-12-29T13:00:00;9.30;99.90
57026;DHT22;43961;52.940;6.834;2023-12-29T13:02:27;9.20;99.90
57026;DHT22;43961;52.940;6.834;2023-12-29T13:04:53;9.20;99.90
57026;DHT22;43961;52.940;6.834;2023-12-29T13:07:20;9.20;99.90
57026;DHT22;43961;52.940;6.834;2023-12-29T13:09:46;9.20;99.90
57026;DHT22;43961;52.940;6.834;2023-12-29T13:12:14;9.20;99.90
57026;DHT22;43961;52.940;6.834;2023-12-29T13:14:44;9.20;99.90
57026;DHT22;43961;52.940;6.834;2023-12-29T13:17:13;9.20;99.90
57026;DHT22;43961;52.940;6.834;2023-12-29T13:19:40;9.10;99.90
57026;DHT22;43961;52.940;6.834;2023-12-29T13:22:11;9.10;99.90
57026;DHT22;43961;52.940;6.834;2023-12-29T13:24:46;9.10;99.90
57026;DHT22;43961;52.940;6.834;2023-12-29T13:27:12;9.10;99.90
57026;DHT22;43961;52.940;6.834;2023-12-29T13:29:39;9.10;99.90
57026;DHT22;43961;52.940;6.834;2023-12-29T13:32:07;9.00;99.90
57026;DHT22;43961;52.940;6.834;2023-12-29T13:40:22;8.90;99.90
57026;DHT22;43961;52.940;6.834;2023-12-29T13:42:52;8.90;99.90
57026;DHT22;43961;52.940;6.834;2023-12-29T13:45:20;8.90;99.90
57026;DHT22;43961;52.940;6.834;2023-12-29T13:47:46;8.90;99.90
57026;DHT22;43961;52.940;6.834;2023-12-29T13:50:12;8.80;99.90
57026;DHT22;43961;52.940;6.834;2023-12-29T13:52:38;8.80;99.90
57026;DHT22;43961;52.940;6.834;2023-12-29T13:55:04;8.80;99.90
57026;DHT22;43961;52.940;6.834;2023-12-29T13:57:32;8.70;99.90
57026;DHT22;43961;52.940;6.834;2023-12-29T14:00:16;8.70;99.90
57026;DHT22;43961;52.940;6.834;2023-12-29T14:02:44;8.70;99.90
57026;DHT22;43961;52.940;6.834;2023-12-29T14:05:15;8.70;99.90
57026;DHT22;43961;52.940;6.834;2023-12-29T14:07:47;8.70;99.90
57026;DHT22;43961;52.940;6.834;2023-12-29T14:10:13;8.70;99.90
57026;DHT22;43961;52.940;6.834;2023-12-29T14:12:38;8.70;99.90
57026;DHT22;43961;52.940;6.834;2023-12-29T14:15:05;8.70;99.90
57026;DHT22;43961;52.940;6.834;2023-12-29T14:17:31;8.70;99.90
57026;DHT22;43961;52.940;6.834;2023-12-29T14:19:58;8.70;99.90
57026;DHT22;43961;52.940;6.834;2023-12-29T14:22:29;8.70;99.90
57026;DHT22;43961;52.940;6.834;2023-12-29T14:25:01;8.70;99.90
57026;DHT22;43961;52.940;6.834;2023-12-29T14:27:28;8.70;99.90
57026;DHT22;43961;52.940;6.834;2023-12-29T14:29:53;8.70;99.90
57026;DHT22;43961;52.940;6.834;2023-12-29T14:32:19;8.60;99.90
57026;DHT22;43961;52.940;6.834;2023-12-29T14:34:48;8.60;99.90
57026;DHT22;43961;52.940;6.834;2023-12-29T14:37:18;8.60;99.90
57026;DHT22;43961;52.940;6.834;2023-12-29T14:39:51;8.60;99.90
57026;DHT22;43961;52.940;6.834;2023-12-29T14:42:17;8.60;99.90
57026;DHT22;43961;52.940;6.834;2023-12-29T14:44:45;8.50;99.90
57026;DHT22;43961;52.940;6.834;2023-12-29T14:47:12;8.50;99.90
57026;DHT22;43961;52.940;6.834;2023-12-29T14:49:38;8.50;99.90
57026;DHT22;43961;52.940;6.834;2023-12-29T14:52:04;8.50;99.90
57026;DHT22;43961;52.940;6.834;2023-12-29T14:54:29;8.50;99.90
57026;DHT22;43961;52.940;6.834;2023-12-29T14:56:55;8.40;99.90
57026;DHT22;43961;52.940;6.834;2023-12-29T14:59:21;8.40;99.90
57026;DHT22;43961;52.940;6.834;2023-12-29T15:01:46;8.40;99.90
57026;DHT22;43961;52.940;6.834;2023-12-29T15:04:12;8.40;99.90
57026;DHT22;43961;52.940;6.834;2023-12-29T15:06:40;8.40;99.90
57026;DHT22;43961;52.940;6.834;2023-12-29T15:09:05;8.40;99.90
57026;DHT22;43961;52.940;6.834;2023-12-29T15:11:33;8.40;99.90
57026;DHT22;43961;52.940;6.834;2023-12-29T15:14:00;8.40;99.90
57026;DHT22;43961;52.940;6.834;2023-12-29T15:16:25;8.40;99.90
57026;DHT22;43961;52.940;6.834;2023-12-29T15:18:51;8.30;99.90
57026;DHT22;43961;52.940;6.834;2023-12-29T15:21:16;8.30;99.90
57026;DHT22;43961;52.940;6.834;2023-12-29T15:23:42;8.40;99.90
57026;DHT22;43961;52.940;6.834;2023-12-29T15:26:08;8.40;99.90
57026;DHT22;43961;52.940;6.834;2023-12-29T15:28:33;8.30;99.90
57026;DHT22;43961;52.940;6.834;2023-12-29T15:30:59;8.30;99.90
57026;DHT22;43961;52.940;6.834;2023-12-29T15:33:24;8.30;99.90
57026;DHT22;43961;52.940;6.834;2023-12-29T15:35:51;8.30;99.90
57026;DHT22;43961;52.940;6.834;2023-12-29T15:38:16;8.30;99.90
57026;DHT22;43961;52.940;6.834;2023-12-29T15:40:42;8.30;99.90
57026;DHT22;43961;52.940;6.834;2023-12-29T15:43:07;8.30;99.90
57026;DHT22;43961;52.940;6.834;2023-12-29T15:45:33;8.20;99.90
57026;DHT22;43961;52.940;6.834;2023-12-29T15:47:59;8.20;99.90
57026;DHT22;43961;52.940;6.834;2023-12-29T15:50:25;8.20;99.90
57026;DHT22;43961;52.940;6.834;2023-12-29T15:52:50;8.20;99.90
57026;DHT22;43961;52.940;6.834;2023-12-29T15:55:17;8.20;99.90
57026;DHT22;43961;52.940;6.834;2023-12-29T15:57:43;8.20;99.90